Time,TemperatureF,DewpointF,PressureIn,WindDirection,WindDirectionDegrees,WindSpeedMPH,WindSpeedGustMPH,Humidity,HourlyPrecipIn,Conditions,Clouds,dailyrainin,SolarRadiationWatts/m^2,SoftwareType,DateUTC
2013-05-23 00:11:00,45.0,40.0,-100.00,NNW,337,7.0,11.0,83,0.00,,,0.00,0.000000,,2013-05-23 07:11:00,
2013-05-23 00:21:00,45.0,40.0,-100.00,NNW,337,7.0,11.0,83,0.00,,,0.00,0.000000,,2013-05-23 07:21:00,
2013-05-23 00:31:00,45.0,40.0,-100.00,NNW,337,7.0,11.0,83,0.00,,,0.00,0.000000,,2013-05-23 07:31:00,
2013-05-23 00:42:00,45.0,40.0,-100.00,NNW,337,7.0,11.0,83,0.00,,,0.00,0.000000,,2013-05-23 07:42:00,
2013-05-23 00:50:00,44.0,40.0,-100.00,NW,315,4.0,10.0,87,0.00,,,0.00,0.000000,,2013-05-23 07:50:00,
2013-05-23 01:11:00,44.0,40.0,-100.00,NW,315,4.0,10.0,87,0.00,,,0.00,0.000000,,2013-05-23 08:11:00,
2013-05-23 01:21:00,44.0,40.0,-100.00,NW,315,4.0,10.0,87,0.00,,,0.00,0.000000,,2013-05-23 08:21:00,
2013-05-23 01:31:00,44.0,40.0,-100.00,NW,315,4.0,10.0,87,0.00,,,0.00,0.000000,,2013-05-23 08:31:00,
2013-05-23 01:41:00,44.0,40.0,-100.00,NW,315,4.0,10.0,87,0.00,,,0.00,0.000000,,2013-05-23 08:41:00,
2013-05-23 01:50:00,42.0,38.0,-100.00,NNW,330,4.0,10.0,86,0.00,,,0.00,0.000000,,2013-05-23 08:50:00,
2013-05-23 02:11:00,42.0,38.0,-100.00,NNW,330,4.0,10.0,86,0.00,,,0.00,0.000000,,2013-05-23 09:11:00,
2013-05-23 02:21:00,42.0,38.0,-100.00,NNW,330,4.0,10.0,86,0.00,,,0.00,0.000000,,2013-05-23 09:21:00,
2013-05-23 02:33:00,42.0,38.0,-100.00,NNW,330,4.0,10.0,86,0.00,,,0.00,0.000000,,2013-05-23 09:33:00,
2013-05-23 02:42:00,42.0,38.0,-100.00,NNW,330,4.0,10.0,86,0.00,,,0.00,0.000000,,2013-05-23 09:42:00,
2013-05-23 02:50:00,42.0,39.0,-100.00,NW,317,4.0,7.0,89,0.00,,,0.00,0.000000,,2013-05-23 09:50:00,
2013-05-23 03:12:00,42.0,39.0,-100.00,NW,317,4.0,7.0,89,0.00,,,0.00,0.000000,,2013-05-23 10:12:00,
2013-05-23 03:22:00,42.0,39.0,-100.00,NW,317,4.0,7.0,89,0.00,,,0.00,0.000000,,2013-05-23 10:22:00,
2013-05-23 03:32:00,42.0,39.0,-100.00,NW,317,4.0,7.0,89,0.00,,,0.00,0.000000,,2013-05-23 10:32:00,
2013-05-23 03:42:00,42.0,39.0,-100.00,NW,317,4.0,7.0,89,0.00,,,0.00,0.000000,,2013-05-23 10:42:00,
2013-05-23 03:50:00,43.0,40.0,-100.00,NW,319,5.0,8.0,89,0.00,,,0.00,0.000000,,2013-05-23 10:50:00,
2013-05-23 04:11:00,43.0,40.0,-100.00,NW,319,5.0,8.0,89,0.00,,,0.00,0.000000,,2013-05-23 11:11:00,
2013-05-23 04:21:00,43.0,40.0,-100.00,NW,319,5.0,8.0,89,0.00,,,0.00,0.000000,,2013-05-23 11:21:00,
2013-05-23 04:32:00,43.0,40.0,-100.00,NW,319,5.0,8.0,89,0.00,,,0.00,0.000000,,2013-05-23 11:32:00,
2013-05-23 04:41:00,43.0,40.0,-100.00,NW,319,5.0,8.0,89,0.00,,,0.00,0.000000,,2013-05-23 11:41:00,
2013-05-23 04:50:00,42.0,39.0,-100.00,NNW,337,6.0,10.0,88,0.00,,,0.00,0.000000,,2013-05-23 11:50:00,
2013-05-23 05:11:00,42.0,39.0,-100.00,NNW,337,6.0,10.0,88,0.00,,,0.00,0.000000,,2013-05-23 12:11:00,
2013-05-23 05:21:00,42.0,39.0,-100.00,NNW,337,6.0,10.0,88,0.00,,,0.00,0.000000,,2013-05-23 12:21:00,
2013-05-23 05:32:00,42.0,39.0,-100.00,NNW,337,6.0,10.0,88,0.00,,,0.00,0.000000,,2013-05-23 12:32:00,
2013-05-23 05:41:00,42.0,39.0,-100.00,NNW,337,6.0,10.0,88,0.00,,,0.00,0.000000,,2013-05-23 12:41:00,
2013-05-23 05:50:00,42.0,39.0,-100.00,NNW,333,8.0,10.0,90,0.00,,,0.00,1.000000,,2013-05-23 12:50:00,
2013-05-23 06:11:00,42.0,39.0,-100.00,NNW,333,8.0,10.0,90,0.00,,,0.00,1.000000,,2013-05-23 13:11:00,
2013-05-23 06:21:00,42.0,39.0,-100.00,NNW,333,8.0,10.0,90,0.00,,,0.00,1.000000,,2013-05-23 13:21:00,
2013-05-23 06:31:00,42.0,39.0,-100.00,NNW,333,8.0,10.0,90,0.00,,,0.00,1.000000,,2013-05-23 13:31:00,
2013-05-23 06:41:00,42.0,39.0,-100.00,NNW,333,8.0,10.0,90,0.00,,,0.00,1.000000,,2013-05-23 13:41:00,
2013-05-23 06:50:00,42.0,40.0,-100.00,NNW,334,7.0,14.0,91,0.00,,,0.00,15.000000,,2013-05-23 13:50:00,
2013-05-23 07:11:00,42.0,40.0,-100.00,NNW,334,7.0,14.0,91,0.00,,,0.00,15.000000,,2013-05-23 14:11:00,
2013-05-23 07:21:00,42.0,40.0,-100.00,NNW,334,7.0,14.0,91,0.00,,,0.00,15.000000,,2013-05-23 14:21:00,
2013-05-23 07:32:00,42.0,40.0,-100.00,NNW,334,7.0,14.0,91,0.00,,,0.00,15.000000,,2013-05-23 14:32:00,
2013-05-23 07:41:00,42.0,40.0,-100.00,NNW,334,7.0,14.0,91,0.00,,,0.00,15.000000,,2013-05-23 14:41:00,
2013-05-23 07:50:00,45.0,42.0,-100.00,NNW,340,9.0,11.0,88,0.00,,,0.00,117.000000,,2013-05-23 14:50:00,
2013-05-23 08:11:00,45.0,42.0,-100.00,NNW,340,9.0,11.0,88,0.00,,,0.00,117.000000,,2013-05-23 15:11:00,
2013-05-23 08:21:00,45.0,42.0,-100.00,NNW,340,9.0,11.0,88,0.00,,,0.00,117.000000,,2013-05-23 15:21:00,
2013-05-23 08:32:00,45.0,42.0,-100.00,NNW,340,9.0,11.0,88,0.00,,,0.00,117.000000,,2013-05-23 15:32:00,
2013-05-23 08:42:00,45.0,42.0,-100.00,NNW,340,9.0,11.0,88,0.00,,,0.00,117.000000,,2013-05-23 15:42:00,
2013-05-23 08:50:00,50.0,41.0,-100.00,NW,319,11.0,15.0,70,0.00,,,0.00,374.000000,,2013-05-23 15:50:00,
2013-05-23 09:12:00,50.0,41.0,-100.00,NW,319,11.0,15.0,70,0.00,,,0.00,374.000000,,2013-05-23 16:12:00,
2013-05-23 09:22:00,50.0,41.0,-100.00,NW,319,11.0,15.0,70,0.00,,,0.00,374.000000,,2013-05-23 16:22:00,
2013-05-23 09:33:00,50.0,41.0,-100.00,NW,319,11.0,15.0,70,0.00,,,0.00,374.000000,,2013-05-23 16:33:00,
2013-05-23 09:42:00,50.0,41.0,-100.00,NW,319,11.0,15.0,70,0.00,,,0.00,374.000000,,2013-05-23 16:42:00,
2013-05-23 09:50:00,53.0,38.0,-100.00,NW,305,11.0,18.0,57,0.00,,,0.00,598.000000,,2013-05-23 16:50:00,
2013-05-23 10:11:00,53.0,38.0,-100.00,NW,305,11.0,18.0,57,0.00,,,0.00,598.000000,,2013-05-23 17:11:00,
2013-05-23 10:22:00,53.0,38.0,-100.00,NW,305,11.0,18.0,57,0.00,,,0.00,598.000000,,2013-05-23 17:22:00,
2013-05-23 10:33:00,53.0,38.0,-100.00,NW,305,11.0,18.0,57,0.00,,,0.00,598.000000,,2013-05-23 17:33:00,
2013-05-23 10:42:00,53.0,38.0,-100.00,NW,305,11.0,18.0,57,0.00,,,0.00,598.000000,,2013-05-23 17:42:00,
2013-05-23 10:50:00,57.0,39.0,-100.00,WNW,297,10.0,16.0,51,0.00,,,0.00,752.000000,,2013-05-23 17:50:00,
2013-05-23 11:11:00,57.0,39.0,-100.00,WNW,297,10.0,16.0,51,0.00,,,0.00,752.000000,,2013-05-23 18:11:00,
2013-05-23 11:21:00,57.0,39.0,-100.00,WNW,297,10.0,16.0,51,0.00,,,0.00,752.000000,,2013-05-23 18:21:00,
2013-05-23 11:32:00,57.0,39.0,-100.00,WNW,297,10.0,16.0,51,0.00,,,0.00,752.000000,,2013-05-23 18:32:00,
2013-05-23 11:42:00,57.0,39.0,-100.00,WNW,297,10.0,16.0,51,0.00,,,0.00,752.000000,,2013-05-23 18:42:00,
2013-05-23 11:50:00,60.0,39.0,-100.00,NW,308,9.0,19.0,46,0.00,,,0.00,877.000000,,2013-05-23 18:50:00,
2013-05-23 12:11:00,60.0,39.0,-100.00,NW,308,9.0,19.0,46,0.00,,,0.00,877.000000,,2013-05-23 19:11:00,
2013-05-23 12:21:00,60.0,39.0,-100.00,NW,308,9.0,19.0,46,0.00,,,0.00,877.000000,,2013-05-23 19:21:00,
2013-05-23 12:31:00,60.0,39.0,-100.00,NW,308,9.0,19.0,46,0.00,,,0.00,877.000000,,2013-05-23 19:31:00,
2013-05-23 12:41:00,60.0,39.0,-100.00,NW,308,9.0,19.0,46,0.00,,,0.00,877.000000,,2013-05-23 19:41:00,
2013-05-23 12:50:00,62.0,39.0,-100.00,NW,311,11.0,19.0,42,0.00,,,0.00,948.000000,,2013-05-23 19:50:00,
2013-05-23 13:11:00,62.0,39.0,-100.00,NW,311,11.0,19.0,42,0.00,,,0.00,948.000000,,2013-05-23 20:11:00,
2013-05-23 13:21:00,62.0,39.0,-100.00,NW,311,11.0,19.0,42,0.00,,,0.00,948.000000,,2013-05-23 20:21:00,
2013-05-23 13:32:00,62.0,39.0,-100.00,NW,311,11.0,19.0,42,0.00,,,0.00,948.000000,,2013-05-23 20:32:00,
2013-05-23 13:41:00,62.0,39.0,-100.00,NW,311,11.0,19.0,42,0.00,,,0.00,948.000000,,2013-05-23 20:41:00,
2013-05-23 13:50:00,63.0,39.0,-100.00,WNW,300,14.0,22.0,41,0.00,,,0.00,969.000000,,2013-05-23 20:50:00,
2013-05-23 14:11:00,63.0,39.0,-100.00,WNW,300,14.0,22.0,41,0.00,,,0.00,969.000000,,2013-05-23 21:11:00,
2013-05-23 14:21:00,63.0,39.0,-100.00,WNW,300,14.0,22.0,41,0.00,,,0.00,969.000000,,2013-05-23 21:21:00,
2013-05-23 14:32:00,63.0,39.0,-100.00,WNW,300,14.0,22.0,41,0.00,,,0.00,969.000000,,2013-05-23 21:32:00,
2013-05-23 14:43:00,63.0,39.0,-100.00,WNW,300,14.0,22.0,41,0.00,,,0.00,969.000000,,2013-05-23 21:43:00,
2013-05-23 14:50:00,63.0,39.0,-100.00,NW,308,15.0,22.0,41,0.00,,,-99.99,932.000000,,2013-05-23 21:50:00,
2013-05-23 15:12:00,63.0,39.0,-100.00,NW,308,15.0,22.0,41,0.00,,,-99.99,932.000000,,2013-05-23 22:12:00,
2013-05-23 15:22:00,63.0,39.0,-100.00,NW,308,15.0,22.0,41,0.00,,,-99.99,932.000000,,2013-05-23 22:22:00,
2013-05-23 15:33:00,63.0,39.0,-100.00,NW,308,15.0,22.0,41,0.00,,,-99.99,932.000000,,2013-05-23 22:33:00,
2013-05-23 15:42:00,63.0,39.0,-100.00,NW,308,15.0,22.0,41,0.00,,,-99.99,932.000000,,2013-05-23 22:42:00,
2013-05-23 15:50:00,62.0,39.0,-100.00,NW,313,17.0,25.0,43,0.00,,,0.00,844.000000,,2013-05-23 22:50:00,
2013-05-23 16:11:00,62.0,39.0,-100.00,NW,313,17.0,25.0,43,0.00,,,0.00,844.000000,,2013-05-23 23:11:00,
2013-05-23 16:21:00,62.0,39.0,-100.00,NW,313,17.0,25.0,43,0.00,,,0.00,844.000000,,2013-05-23 23:21:00,
2013-05-23 16:31:00,62.0,39.0,-100.00,NW,313,17.0,25.0,43,0.00,,,0.00,844.000000,,2013-05-23 23:31:00,
2013-05-23 16:42:00,62.0,39.0,-100.00,NW,313,17.0,25.0,43,0.00,,,0.00,844.000000,,2013-05-23 23:42:00,
2013-05-23 16:50:00,60.0,39.0,-100.00,NW,306,17.0,27.0,45,0.00,,,0.00,708.000000,,2013-05-23 23:50:00,
2013-05-23 17:12:00,60.0,39.0,-100.00,NW,306,17.0,27.0,45,0.00,,,0.00,708.000000,,2013-05-24 00:12:00,
2013-05-23 17:21:00,60.0,39.0,-100.00,NW,306,17.0,27.0,45,0.00,,,0.00,708.000000,,2013-05-24 00:21:00,
2013-05-23 17:31:00,60.0,39.0,-100.00,NW,306,17.0,27.0,45,0.00,,,0.00,708.000000,,2013-05-24 00:31:00,
2013-05-23 17:42:00,60.0,39.0,-100.00,NW,306,17.0,27.0,45,0.00,,,0.00,708.000000,,2013-05-24 00:42:00,
2013-05-23 17:50:00,60.0,39.0,-100.00,WNW,296,13.0,23.0,46,0.00,,,0.00,540.000000,,2013-05-24 00:50:00,
2013-05-23 18:12:00,60.0,39.0,-100.00,WNW,296,13.0,23.0,46,0.00,,,0.00,540.000000,,2013-05-24 01:12:00,
2013-05-23 18:22:00,60.0,39.0,-100.00,WNW,296,13.0,23.0,46,0.00,,,0.00,540.000000,,2013-05-24 01:22:00,
2013-05-23 18:32:00,60.0,39.0,-100.00,WNW,296,13.0,23.0,46,0.00,,,0.00,540.000000,,2013-05-24 01:32:00,
2013-05-23 18:41:00,60.0,39.0,-100.00,WNW,296,13.0,23.0,46,0.00,,,0.00,540.000000,,2013-05-24 01:41:00,
2013-05-23 18:50:00,58.0,38.0,-100.00,WNW,300,12.0,22.0,48,0.00,,,0.00,348.000000,,2013-05-24 01:50:00,
2013-05-23 19:11:00,58.0,38.0,-100.00,WNW,300,12.0,22.0,48,0.00,,,0.00,348.000000,,2013-05-24 02:11:00,
2013-05-23 19:21:00,58.0,38.0,-100.00,WNW,300,12.0,22.0,48,0.00,,,0.00,348.000000,,2013-05-24 02:21:00,
2013-05-23 19:32:00,58.0,38.0,-100.00,WNW,300,12.0,22.0,48,0.00,,,0.00,348.000000,,2013-05-24 02:32:00,
2013-05-23 19:42:00,58.0,38.0,-100.00,WNW,300,12.0,22.0,48,0.00,,,0.00,348.000000,,2013-05-24 02:42:00,
2013-05-23 19:50:00,55.0,38.0,-100.00,NW,309,13.0,21.0,52,0.00,,,0.00,159.000000,,2013-05-24 02:50:00,
2013-05-23 20:11:00,55.0,38.0,-100.00,NW,309,13.0,21.0,52,0.00,,,0.00,159.000000,,2013-05-24 03:11:00,
2013-05-23 20:21:00,55.0,38.0,-100.00,NW,309,13.0,21.0,52,0.00,,,0.00,159.000000,,2013-05-24 03:21:00,
2013-05-23 20:33:00,55.0,38.0,-100.00,NW,309,13.0,21.0,52,0.00,,,0.00,159.000000,,2013-05-24 03:33:00,
2013-05-23 20:42:00,55.0,38.0,-100.00,NW,309,13.0,21.0,52,0.00,,,0.00,159.000000,,2013-05-24 03:42:00,
2013-05-23 20:50:00,51.0,38.0,-100.00,NW,309,9.0,20.0,62,0.00,,,0.00,18.000000,,2013-05-24 03:50:00,
2013-05-23 21:12:00,51.0,38.0,-100.00,NW,309,9.0,20.0,62,0.00,,,0.00,18.000000,,2013-05-24 04:12:00,
2013-05-23 21:22:00,51.0,38.0,-100.00,NW,309,9.0,20.0,62,0.00,,,0.00,18.000000,,2013-05-24 04:22:00,
2013-05-23 21:33:00,51.0,38.0,-100.00,NW,309,9.0,20.0,62,0.00,,,0.00,18.000000,,2013-05-24 04:33:00,
2013-05-23 21:42:00,51.0,38.0,-100.00,NW,309,9.0,20.0,62,0.00,,,0.00,18.000000,,2013-05-24 04:42:00,
2013-05-23 21:50:00,48.0,39.0,-100.00,NW,314,7.0,14.0,70,0.00,,,0.00,0.000000,,2013-05-24 04:50:00,
2013-05-23 22:12:00,48.0,39.0,-100.00,NW,314,7.0,14.0,70,0.00,,,0.00,0.000000,,2013-05-24 05:12:00,
2013-05-23 22:22:00,48.0,39.0,-100.00,NW,314,7.0,14.0,70,0.00,,,0.00,0.000000,,2013-05-24 05:22:00,
2013-05-23 22:32:00,48.0,39.0,-100.00,NW,314,7.0,14.0,70,0.00,,,0.00,0.000000,,2013-05-24 05:32:00,
2013-05-23 22:42:00,48.0,39.0,-100.00,NW,314,7.0,14.0,70,0.00,,,0.00,0.000000,,2013-05-24 05:42:00,
2013-05-23 22:50:00,47.0,40.0,-100.00,North,349,5.0,10.0,77,0.00,,,0.00,0.000000,,2013-05-24 05:50:00,
2013-05-23 23:12:00,47.0,40.0,-100.00,North,349,5.0,10.0,77,0.00,,,0.00,0.000000,,2013-05-24 06:12:00,
2013-05-23 23:21:00,47.0,40.0,-100.00,North,349,5.0,10.0,77,0.00,,,0.00,0.000000,,2013-05-24 06:21:00,
2013-05-23 23:32:00,47.0,40.0,-100.00,North,349,5.0,10.0,77,0.00,,,0.00,0.000000,,2013-05-24 06:32:00,
2013-05-23 23:41:00,47.0,40.0,-100.00,North,349,5.0,10.0,77,0.00,,,0.00,0.000000,,2013-05-24 06:41:00,
2013-05-23 23:50:00,46.0,41.0,-100.00,NNW,334,4.0,6.0,84,0.00,,,0.00,0.000000,,2013-05-24 06:50:00,